createdAt,value
2023-03-29T00:00:38.531Z,6.06
2023-03-29T00:01:38.526Z,6.06
2023-03-29T00:02:38.577Z,6.09
2023-03-29T00:03:38.579Z,6.10
2023-03-29T00:04:38.494Z,6.10
2023-03-29T00:05:38.517Z,6.13
2023-03-29T00:06:38.470Z,6.13
2023-03-29T00:07:38.503Z,6.13
2023-03-29T00:08:38.415Z,6.13
2023-03-29T00:09:38.458Z,6.13
2023-03-29T00:10:38.398Z,6.10
2023-03-29T00:11:38.434Z,6.13
2023-03-29T00:12:38.382Z,6.13
2023-03-29T00:13:38.393Z,6.09
2023-03-29T00:14:38.396Z,6.09
2023-03-29T00:15:38.409Z,6.06
2023-03-29T00:16:38.384Z,6.01
2023-03-29T00:17:38.404Z,5.98
2023-03-29T00:18:38.312Z,5.96
2023-03-29T00:19:38.325Z,5.93
2023-03-29T00:20:38.294Z,5.93
2023-03-29T00:21:38.336Z,5.92
2023-03-29T00:22:38.292Z,5.93
2023-03-29T00:23:38.277Z,5.89
2023-03-29T00:24:38.241Z,5.86
2023-03-29T00:25:39.219Z,5.83
2023-03-29T00:26:38.229Z,5.82
2023-03-29T00:27:38.274Z,5.81
2023-03-29T00:28:38.232Z,5.81
2023-03-29T00:29:38.211Z,5.83
2023-03-29T00:30:38.203Z,5.77
2023-03-29T00:31:38.266Z,5.77
2023-03-29T00:32:38.280Z,5.77
2023-03-29T00:33:38.199Z,5.75
2023-03-29T00:34:38.136Z,5.75
2023-03-29T00:35:38.193Z,5.75
2023-03-29T00:36:38.126Z,5.77
2023-03-29T00:37:38.195Z,5.78
2023-03-29T00:38:38.098Z,5.82
2023-03-29T00:39:38.115Z,5.82
2023-03-29T00:40:38.089Z,5.85
2023-03-29T00:41:38.097Z,5.81
2023-03-29T00:42:38.097Z,5.81
2023-03-29T00:43:38.066Z,5.81
2023-03-29T00:44:38.025Z,5.83
2023-03-29T00:45:38.050Z,5.81
2023-03-29T00:46:38.061Z,5.83
2023-03-29T00:47:38.137Z,5.82
2023-03-29T00:48:37.981Z,5.82
2023-03-29T00:49:38.048Z,5.82
2023-03-29T00:50:38.010Z,5.82
2023-03-29T00:51:37.989Z,5.83
2023-03-29T00:52:37.938Z,5.83
2023-03-29T00:53:37.970Z,5.82
2023-03-29T00:54:37.952Z,5.83
2023-03-29T00:55:37.947Z,5.83
2023-03-29T00:56:37.941Z,5.85
2023-03-29T00:57:37.946Z,5.86
2023-03-29T00:58:37.891Z,5.88
2023-03-29T00:59:37.929Z,5.89
2023-03-29T01:00:44.968Z,5.86
2023-03-29T01:01:37.913Z,5.85
2023-03-29T01:02:37.912Z,5.83
2023-03-29T01:03:38.159Z,5.85
2023-03-29T01:04:37.843Z,5.82
2023-03-29T01:05:37.873Z,5.82
2023-03-29T01:06:37.824Z,5.81
2023-03-29T01:07:37.812Z,5.81
2023-03-29T01:08:37.805Z,5.82
2023-03-29T01:09:37.807Z,5.83
2023-03-29T01:10:37.764Z,5.82
2023-03-29T01:11:37.885Z,5.83
2023-03-29T01:12:37.780Z,5.83
2023-03-29T01:13:37.762Z,5.83
2023-03-29T01:14:37.715Z,5.85
2023-03-29T01:15:37.746Z,5.85
2023-03-29T01:16:37.713Z,5.88
2023-03-29T01:17:37.741Z,5.86
2023-03-29T01:18:37.678Z,5.88
2023-03-29T01:19:37.693Z,5.88
2023-03-29T01:20:37.652Z,5.85
2023-03-29T01:21:37.689Z,5.86
2023-03-29T01:22:37.659Z,5.85
2023-03-29T01:23:39.126Z,5.83
2023-03-29T01:24:37.613Z,5.82
2023-03-29T01:25:37.656Z,5.81
2023-03-29T01:26:37.583Z,5.81
2023-03-29T01:27:37.596Z,5.78
2023-03-29T01:28:37.596Z,5.81
2023-03-29T01:29:37.598Z,5.81
2023-03-29T01:30:37.556Z,5.81
2023-03-29T01:31:37.573Z,5.77
2023-03-29T01:32:37.571Z,5.75
2023-03-29T01:33:37.579Z,5.75
2023-03-29T01:34:37.519Z,5.74
2023-03-29T01:35:37.572Z,5.70
2023-03-29T01:36:37.486Z,5.70
2023-03-29T01:37:37.530Z,5.68
2023-03-29T01:38:37.467Z,5.67
2023-03-29T01:39:37.461Z,5.67
2023-03-29T01:40:37.440Z,5.70
2023-03-29T01:41:37.467Z,5.68
2023-03-29T01:42:37.450Z,5.70
2023-03-29T01:43:37.438Z,5.68
2023-03-29T01:44:37.403Z,5.70
2023-03-29T01:45:37.395Z,5.70
2023-03-29T01:46:37.473Z,5.70
2023-03-29T01:47:37.425Z,5.70
2023-03-29T01:48:37.358Z,5.68
2023-03-29T01:49:37.358Z,5.70
2023-03-29T01:50:37.319Z,5.70
2023-03-29T01:51:37.387Z,5.70
2023-03-29T01:52:37.302Z,5.71
2023-03-29T01:53:37.317Z,5.70
2023-03-29T01:54:37.290Z,5.70
2023-03-29T01:55:37.280Z,5.73
2023-03-29T01:56:37.300Z,5.73
2023-03-29T01:57:37.267Z,5.74
2023-03-29T01:58:37.297Z,5.73
2023-03-29T01:59:37.270Z,5.71
2023-03-29T02:00:37.248Z,5.73
2023-03-29T02:01:37.274Z,5.68
2023-03-29T02:02:37.256Z,5.70
2023-03-29T02:03:37.262Z,5.68
2023-03-29T02:04:37.159Z,5.70
2023-03-29T02:05:38.173Z,5.68
2023-03-29T02:06:38.143Z,5.66
2023-03-29T02:07:37.179Z,5.67
2023-03-29T02:08:37.831Z,5.66
2023-03-29T02:09:37.180Z,5.66
2023-03-29T02:10:37.105Z,5.66
2023-03-29T02:11:37.118Z,5.64
2023-03-29T02:12:37.103Z,5.63
2023-03-29T02:13:37.139Z,5.67
2023-03-29T02:14:37.048Z,5.63
2023-03-29T02:15:37.104Z,5.59
2023-03-29T02:16:37.023Z,5.59
2023-03-29T02:17:37.089Z,5.56
2023-03-29T02:18:36.998Z,5.57
2023-03-29T02:19:37.047Z,5.57
2023-03-29T02:20:36.992Z,5.56
2023-03-29T02:21:37.125Z,5.56
2023-03-29T02:22:36.983Z,5.56
2023-03-29T02:23:36.963Z,5.56
2023-03-29T02:24:36.971Z,5.57
2023-03-29T02:25:36.945Z,5.60
2023-03-29T02:26:36.912Z,5.60
2023-03-29T02:27:36.928Z,5.63
2023-03-29T02:28:36.910Z,5.60
2023-03-29T02:29:36.960Z,5.60
2023-03-29T02:30:36.895Z,5.63
2023-03-29T02:31:36.926Z,5.60
2023-03-29T02:32:36.945Z,5.60
2023-03-29T02:33:36.869Z,5.59
2023-03-29T02:34:36.852Z,5.57
2023-03-29T02:35:36.875Z,5.57
2023-03-29T02:36:36.811Z,5.57
2023-03-29T02:37:36.824Z,5.55
2023-03-29T02:38:36.829Z,5.55
2023-03-29T02:39:36.817Z,5.55
2023-03-29T02:40:36.788Z,5.55
2023-03-29T02:41:36.798Z,5.53
2023-03-29T02:42:36.752Z,5.55
2023-03-29T02:43:36.789Z,5.55
2023-03-29T02:44:36.733Z,5.56
2023-03-29T02:45:36.760Z,5.56
2023-03-29T02:46:36.726Z,5.57
2023-03-29T02:47:36.754Z,5.57
2023-03-29T02:48:36.685Z,5.59
2023-03-29T02:49:36.707Z,5.60
2023-03-29T02:50:36.678Z,5.60
2023-03-29T02:51:36.714Z,5.59
2023-03-29T02:52:36.698Z,5.59
2023-03-29T02:53:36.646Z,5.59
2023-03-29T02:54:36.601Z,5.59
2023-03-29T02:55:36.633Z,5.59
2023-03-29T02:56:37.596Z,5.59
2023-03-29T02:57:36.611Z,5.59
2023-03-29T02:58:36.582Z,5.57
2023-03-29T02:59:36.587Z,5.57
2023-03-29T03:00:36.555Z,5.57
2023-03-29T03:01:36.640Z,5.56
2023-03-29T03:02:36.592Z,5.57
2023-03-29T03:03:36.675Z,5.57
2023-03-29T03:04:36.521Z,5.57
2023-03-29T03:05:36.529Z,5.59
2023-03-29T03:06:36.505Z,5.60
2023-03-29T03:07:36.500Z,5.59
2023-03-29T03:08:36.475Z,5.60
2023-03-29T03:09:36.491Z,5.59
2023-03-29T03:10:36.451Z,5.59
2023-03-29T03:11:36.509Z,5.57
2023-03-29T03:12:36.417Z,5.57
2023-03-29T03:13:36.438Z,5.59
2023-03-29T03:14:36.430Z,5.60
2023-03-29T03:15:36.417Z,5.60
2023-03-29T03:16:36.483Z,5.63
2023-03-29T03:17:36.416Z,5.63
2023-03-29T03:18:36.362Z,5.64
2023-03-29T03:19:36.392Z,5.63
2023-03-29T03:20:36.389Z,5.59
2023-03-29T03:21:36.356Z,5.59
2023-03-29T03:22:36.306Z,5.59
2023-03-29T03:23:36.356Z,5.57
2023-03-29T03:24:36.295Z,5.59
2023-03-29T03:25:36.367Z,5.56
2023-03-29T03:26:36.280Z,5.56
2023-03-29T03:27:36.284Z,5.55
2023-03-29T03:28:36.252Z,5.53
2023-03-29T03:29:36.267Z,5.53
2023-03-29T03:30:36.244Z,5.55
2023-03-29T03:31:36.325Z,5.55
2023-03-29T03:32:36.238Z,5.53
2023-03-29T03:33:36.222Z,5.55
2023-03-29T03:34:36.220Z,5.53
2023-03-29T03:35:36.238Z,5.53
2023-03-29T03:36:36.183Z,5.52
2023-03-29T03:37:36.156Z,5.49
2023-03-29T03:38:36.202Z,5.50
2023-03-29T03:39:36.131Z,5.50
2023-03-29T03:40:36.135Z,5.52
2023-03-29T03:41:36.110Z,5.50
2023-03-29T03:42:36.136Z,5.52
2023-03-29T03:43:37.080Z,5.52
2023-03-29T03:44:36.128Z,5.52
2023-03-29T03:45:36.110Z,5.53
2023-03-29T03:46:36.094Z,5.53
2023-03-29T03:47:36.056Z,5.55
2023-03-29T03:48:36.073Z,5.55
2023-03-29T03:49:36.053Z,5.55
2023-03-29T03:50:36.050Z,5.56
2023-03-29T03:51:35.998Z,5.57
2023-03-29T03:52:36.015Z,5.59
2023-03-29T03:53:36.071Z,5.60
2023-03-29T03:54:36.019Z,5.59
2023-03-29T03:55:35.986Z,5.59
2023-03-29T03:56:36.031Z,5.59
2023-03-29T03:57:35.999Z,5.59
2023-03-29T03:58:36.009Z,5.59
2023-03-29T03:59:35.901Z,5.60
2023-03-29T04:00:35.979Z,5.59
2023-03-29T04:01:35.929Z,5.57
2023-03-29T04:02:36.009Z,5.57
2023-03-29T04:03:35.943Z,5.59
2023-03-29T04:04:35.963Z,5.57
2023-03-29T04:05:35.865Z,5.57
2023-03-29T04:06:35.882Z,5.57
2023-03-29T04:07:35.833Z,5.57
2023-03-29T04:08:35.849Z,5.56
2023-03-29T04:09:35.842Z,5.57
2023-03-29T04:10:35.827Z,5.56
2023-03-29T04:11:35.858Z,5.55
2023-03-29T04:12:35.800Z,5.57
2023-03-29T04:13:35.833Z,5.56
2023-03-29T04:14:35.804Z,5.56
2023-03-29T04:15:35.791Z,5.56
2023-03-29T04:16:36.738Z,5.56
2023-03-29T04:17:35.839Z,5.55
2023-03-29T04:18:35.821Z,5.55
2023-03-29T04:19:35.771Z,5.56
2023-03-29T04:20:35.733Z,5.53
2023-03-29T04:21:35.684Z,5.53
2023-03-29T04:22:35.701Z,5.53
2023-03-29T04:23:35.703Z,5.53
2023-03-29T04:24:35.696Z,5.53
2023-03-29T04:25:35.630Z,5.53
2023-03-29T04:26:35.714Z,5.55
2023-03-29T04:27:35.670Z,5.56
2023-03-29T04:28:35.657Z,5.55
2023-03-29T04:29:35.587Z,5.57
2023-03-29T04:30:35.630Z,5.57
2023-03-29T04:31:35.606Z,5.59
2023-03-29T04:32:35.622Z,5.59
2023-03-29T04:33:35.588Z,5.63
2023-03-29T04:34:35.584Z,5.63
2023-03-29T04:35:35.605Z,5.63
2023-03-29T04:36:35.555Z,5.63
2023-03-29T04:37:35.515Z,5.63
2023-03-29T04:38:35.515Z,5.63
2023-03-29T04:39:35.515Z,5.63
2023-03-29T04:40:35.535Z,5.63
2023-03-29T04:41:35.488Z,5.63
2023-03-29T04:42:35.476Z,5.63
2023-03-29T04:43:35.863Z,5.63
2023-03-29T04:44:35.522Z,5.63
2023-03-29T04:45:35.451Z,5.59
2023-03-29T04:46:35.540Z,5.63
2023-03-29T04:47:35.438Z,5.60
2023-03-29T04:48:36.411Z,5.60
2023-03-29T04:49:35.406Z,5.57
2023-03-29T04:50:35.400Z,5.56
2023-03-29T04:51:35.374Z,5.59
2023-03-29T04:52:35.379Z,5.56
2023-03-29T04:53:35.337Z,5.56
2023-03-29T04:54:35.379Z,5.56
2023-03-29T04:55:35.352Z,5.56
2023-03-29T04:56:35.375Z,5.56
2023-03-29T04:57:35.345Z,5.53
2023-03-29T04:58:35.314Z,5.55
2023-03-29T04:59:35.305Z,5.53
2023-03-29T05:00:35.283Z,5.56
2023-03-29T05:01:35.299Z,5.56
2023-03-29T05:02:35.348Z,5.55
2023-03-29T05:03:35.254Z,5.53
2023-03-29T05:04:35.300Z,5.56
2023-03-29T05:05:35.213Z,5.56
2023-03-29T05:06:35.243Z,5.56
2023-03-29T05:07:35.193Z,5.56
2023-03-29T05:08:35.229Z,5.59
2023-03-29T05:09:35.647Z,5.59
2023-03-29T05:10:35.184Z,5.59
2023-03-29T05:11:35.149Z,5.60
2023-03-29T05:12:35.211Z,5.63
2023-03-29T05:13:35.150Z,5.60
2023-03-29T05:14:35.452Z,5.63
2023-03-29T05:15:35.128Z,5.64
2023-03-29T05:16:35.185Z,5.66
2023-03-29T05:17:36.075Z,5.68
2023-03-29T05:18:35.093Z,5.70
2023-03-29T05:19:35.099Z,5.70
2023-03-29T05:20:35.106Z,5.73
2023-03-29T05:21:35.082Z,5.73
2023-03-29T05:22:35.096Z,5.75
2023-03-29T05:23:35.027Z,5.75
2023-03-29T05:24:35.711Z,5.77
2023-03-29T05:25:35.039Z,5.78
2023-03-29T05:26:35.025Z,5.77
2023-03-29T05:27:35.001Z,5.77
2023-03-29T05:28:35.009Z,5.77
2023-03-29T05:29:34.993Z,5.75
2023-03-29T05:30:34.998Z,5.81
2023-03-29T05:31:34.998Z,5.78
2023-03-29T05:32:34.986Z,5.77
2023-03-29T05:33:34.914Z,5.78
2023-03-29T05:34:34.927Z,5.82
2023-03-29T05:35:34.945Z,5.83
2023-03-29T05:36:34.918Z,5.85
2023-03-29T05:37:34.900Z,5.83
2023-03-29T05:38:34.886Z,5.86
2023-03-29T05:39:37.139Z,5.85
2023-03-29T05:40:34.861Z,5.86
2023-03-29T05:41:34.845Z,5.86
2023-03-29T05:42:34.863Z,5.86
2023-03-29T05:43:34.861Z,5.85
2023-03-29T05:44:34.842Z,5.83
2023-03-29T05:45:34.834Z,5.82
2023-03-29T05:46:34.817Z,5.82
2023-03-29T05:47:34.800Z,5.82
2023-03-29T05:48:34.836Z,5.83
2023-03-29T05:49:34.779Z,5.86
2023-03-29T05:50:34.771Z,5.86
2023-03-29T05:51:34.716Z,5.86
2023-03-29T05:52:34.754Z,5.86
2023-03-29T05:53:34.709Z,5.89
2023-03-29T05:54:34.692Z,5.92
2023-03-29T05:55:34.692Z,5.93
2023-03-29T05:56:34.741Z,5.96
2023-03-29T05:57:34.658Z,5.98
2023-03-29T05:58:34.671Z,5.98
2023-03-29T05:59:34.644Z,6.03
2023-03-29T06:00:34.657Z,6.04
2023-03-29T06:01:34.651Z,6.06
2023-03-29T06:02:34.700Z,6.10
2023-03-29T06:03:34.773Z,6.10
2023-03-29T06:04:35.651Z,6.14
2023-03-29T06:05:34.595Z,6.16
2023-03-29T06:06:34.586Z,6.19
2023-03-29T06:07:34.590Z,6.22
2023-03-29T06:08:34.563Z,6.26
2023-03-29T06:09:34.530Z,6.30
2023-03-29T06:10:34.546Z,6.35
2023-03-29T06:11:34.517Z,6.36
2023-03-29T06:12:34.596Z,6.41
2023-03-29T06:13:34.545Z,6.43
2023-03-29T06:14:34.541Z,6.46
2023-03-29T06:15:34.472Z,6.47
2023-03-29T06:16:34.535Z,6.47
2023-03-29T06:17:34.471Z,6.46
2023-03-29T06:18:34.537Z,6.41
2023-03-29T06:19:34.430Z,6.41
2023-03-29T06:20:34.460Z,6.43
2023-03-29T06:21:34.430Z,6.46
2023-03-29T06:22:34.886Z,6.46
2023-03-29T06:23:34.876Z,6.48
2023-03-29T06:24:34.405Z,6.48
2023-03-29T06:25:34.876Z,6.51
2023-03-29T06:26:34.393Z,6.53
2023-03-29T06:27:34.377Z,6.56
2023-03-29T06:28:34.354Z,6.58
2023-03-29T06:29:35.268Z,6.59
2023-03-29T06:30:34.356Z,6.61
2023-03-29T06:31:34.374Z,6.63
2023-03-29T06:32:34.355Z,6.66
2023-03-29T06:33:34.292Z,6.66
2023-03-29T06:34:35.550Z,6.69
2023-03-29T06:35:34.324Z,6.69
2023-03-29T06:36:34.284Z,6.71
2023-03-29T06:37:34.234Z,6.72
2023-03-29T06:38:34.268Z,6.76
2023-03-29T06:39:34.314Z,6.76
2023-03-29T06:40:34.247Z,6.77
2023-03-29T06:41:34.196Z,6.80
2023-03-29T06:42:34.221Z,6.81
2023-03-29T06:43:34.195Z,6.80
2023-03-29T06:44:34.191Z,6.80
2023-03-29T06:45:34.144Z,6.80
2023-03-29T06:46:34.277Z,6.80
2023-03-29T06:47:34.183Z,6.86
2023-03-29T06:48:34.138Z,6.87
2023-03-29T06:49:34.109Z,6.89
2023-03-29T06:50:34.141Z,6.91
2023-03-29T06:51:34.095Z,6.95
2023-03-29T06:52:34.099Z,6.98
2023-03-29T06:53:34.065Z,7.02
2023-03-29T06:54:34.095Z,6.99
2023-03-29T06:55:34.082Z,7.04
2023-03-29T06:56:34.078Z,7.05
2023-03-29T06:57:34.980Z,7.05
2023-03-29T06:58:34.374Z,7.08
2023-03-29T06:59:34.008Z,7.09
2023-03-29T07:00:34.020Z,7.09
2023-03-29T07:01:34.043Z,7.09
2023-03-29T07:02:34.124Z,7.16
2023-03-29T07:03:33.974Z,7.16
2023-03-29T07:04:33.987Z,7.19
2023-03-29T07:05:33.942Z,7.20
2023-03-29T07:06:33.971Z,7.23
2023-03-29T07:07:33.912Z,7.24
2023-03-29T07:08:33.960Z,7.27
2023-03-29T07:09:33.911Z,7.31
2023-03-29T07:10:33.921Z,7.35
2023-03-29T07:11:33.897Z,7.37
2023-03-29T07:12:34.165Z,7.42
2023-03-29T07:13:33.859Z,7.44
2023-03-29T07:14:33.883Z,7.49
2023-03-29T07:15:33.833Z,7.53
2023-03-29T07:16:33.892Z,7.58
2023-03-29T07:17:33.912Z,7.59
2023-03-29T07:18:33.852Z,7.59
2023-03-29T07:19:33.784Z,7.62
2023-03-29T07:20:33.859Z,7.60
2023-03-29T07:21:36.011Z,7.60
2023-03-29T07:22:33.791Z,7.62
2023-03-29T07:23:33.756Z,7.66
2023-03-29T07:24:33.740Z,7.62
2023-03-29T07:25:34.721Z,7.60
2023-03-29T07:26:33.762Z,7.60
2023-03-29T07:27:33.701Z,7.58
2023-03-29T07:28:33.713Z,7.58
2023-03-29T07:29:33.706Z,7.58
2023-03-29T07:30:33.688Z,7.60
2023-03-29T07:31:33.659Z,7.62
2023-03-29T07:32:33.767Z,7.66
2023-03-29T07:33:33.713Z,7.66
2023-03-29T07:34:33.645Z,7.71
2023-03-29T07:35:33.681Z,7.71
2023-03-29T07:36:33.674Z,7.72
2023-03-29T07:37:33.995Z,7.74
2023-03-29T07:38:33.612Z,7.79
2023-03-29T07:39:33.553Z,7.81
2023-03-29T07:40:33.613Z,7.82
2023-03-29T07:41:33.556Z,7.84
2023-03-29T07:42:33.577Z,7.85
2023-03-29T07:43:33.541Z,7.85
2023-03-29T07:44:33.550Z,7.84
2023-03-29T07:45:33.582Z,7.81
2023-03-29T07:46:33.516Z,7.82
2023-03-29T07:47:33.513Z,7.79
2023-03-29T07:48:33.512Z,7.84
2023-03-29T07:49:33.494Z,7.89
2023-03-29T07:50:33.485Z,7.90
2023-03-29T07:51:33.463Z,7.92
2023-03-29T07:52:33.408Z,7.97
2023-03-29T07:53:33.442Z,8.00
2023-03-29T07:54:33.403Z,8.04
2023-03-29T07:55:33.455Z,8.10
2023-03-29T07:56:33.384Z,8.11
2023-03-29T07:57:33.405Z,8.14
2023-03-29T07:58:33.397Z,8.15
2023-03-29T07:59:33.379Z,8.14
2023-03-29T08:00:33.358Z,8.15
2023-03-29T08:01:33.411Z,8.14
2023-03-29T08:02:33.371Z,8.14
2023-03-29T08:03:33.372Z,8.15
2023-03-29T08:04:33.393Z,8.15
2023-03-29T08:05:40.658Z,8.17
2023-03-29T08:06:34.320Z,8.14
2023-03-29T08:07:33.289Z,8.12
2023-03-29T08:08:33.265Z,8.10
2023-03-29T08:09:33.294Z,8.11
2023-03-29T08:10:33.241Z,8.11
2023-03-29T08:11:33.292Z,8.11
2023-03-29T08:12:33.229Z,8.12
2023-03-29T08:13:33.233Z,8.14
2023-03-29T08:14:33.184Z,8.15
2023-03-29T08:15:33.304Z,8.17
2023-03-29T08:16:33.269Z,8.17
2023-03-29T08:17:33.182Z,8.20
2023-03-29T08:18:34.832Z,8.25
2023-03-29T08:19:33.177Z,8.25
2023-03-29T08:20:33.142Z,8.26
2023-03-29T08:21:34.110Z,8.28
2023-03-29T08:22:33.138Z,8.29
2023-03-29T08:23:33.137Z,8.32
2023-03-29T08:24:33.080Z,8.33
2023-03-29T08:25:33.095Z,8.33
2023-03-29T08:26:33.068Z,8.33
2023-03-29T08:27:33.303Z,8.37
2023-03-29T08:28:33.072Z,8.39
2023-03-29T08:29:33.064Z,8.39
2023-03-29T08:30:33.015Z,8.44
2023-03-29T08:31:33.057Z,8.47
2023-03-29T08:32:33.039Z,8.48
2023-03-29T08:33:33.003Z,8.48
2023-03-29T08:34:32.981Z,8.50
2023-03-29T08:35:33.054Z,8.53
2023-03-29T08:36:32.969Z,8.54
2023-03-29T08:37:33.014Z,8.53
2023-03-29T08:38:32.935Z,8.48
2023-03-29T08:39:32.943Z,8.50
2023-03-29T08:40:32.911Z,8.48
2023-03-29T08:41:32.989Z,8.47
2023-03-29T08:42:32.917Z,8.47
2023-03-29T08:43:32.913Z,8.50
2023-03-29T08:44:32.869Z,8.53
2023-03-29T08:45:32.885Z,8.53
2023-03-29T08:46:35.381Z,8.55
2023-03-29T08:47:32.934Z,8.58
2023-03-29T08:48:32.842Z,8.62
2023-03-29T08:49:32.894Z,8.63
2023-03-29T08:50:32.822Z,8.65
2023-03-29T08:51:32.819Z,8.63
2023-03-29T08:52:32.873Z,8.63
2023-03-29T08:53:32.798Z,8.63
2023-03-29T08:54:32.786Z,8.62
2023-03-29T08:55:32.767Z,8.62
2023-03-29T08:56:34.254Z,8.62
2023-03-29T08:57:32.805Z,8.58
2023-03-29T08:58:32.751Z,8.60
2023-03-29T08:59:32.735Z,8.62
2023-03-29T09:00:32.744Z,8.68
2023-03-29T09:01:32.797Z,8.71
2023-03-29T09:02:32.745Z,8.75
2023-03-29T09:03:32.845Z,8.75
2023-03-29T09:04:32.649Z,8.78
2023-03-29T09:05:32.678Z,8.79
2023-03-29T09:06:32.640Z,8.84
2023-03-29T09:07:32.672Z,8.81
2023-03-29T09:08:32.619Z,8.84
2023-03-29T09:09:32.645Z,8.84
2023-03-29T09:10:32.588Z,8.84
2023-03-29T09:11:32.610Z,8.84
2023-03-29T09:12:33.642Z,8.87
2023-03-29T09:13:32.642Z,8.91
2023-03-29T09:14:32.585Z,8.94
2023-03-29T09:15:32.577Z,8.96
2023-03-29T09:16:32.680Z,8.94
2023-03-29T09:17:33.535Z,8.93
2023-03-29T09:18:32.500Z,8.91
2023-03-29T09:19:32.536Z,8.94
2023-03-29T09:20:32.493Z,8.90
2023-03-29T09:21:32.513Z,8.91
2023-03-29T09:22:32.504Z,8.91
2023-03-29T09:23:32.510Z,8.93
2023-03-29T09:24:32.443Z,8.97
2023-03-29T09:25:36.234Z,8.99
2023-03-29T09:26:33.443Z,9.02
2023-03-29T09:27:32.495Z,9.10
2023-03-29T09:28:32.419Z,9.13
2023-03-29T09:29:32.410Z,9.15
2023-03-29T09:30:32.376Z,9.16
2023-03-29T09:31:33.398Z,9.20
2023-03-29T09:32:32.433Z,9.23
2023-03-29T09:33:32.380Z,9.25
2023-03-29T09:34:32.334Z,9.30
2023-03-29T09:35:32.425Z,9.28
2023-03-29T09:36:32.414Z,9.31
2023-03-29T09:37:32.324Z,9.31
2023-03-29T09:38:32.296Z,9.34
2023-03-29T09:39:32.307Z,9.38
2023-03-29T09:40:32.307Z,9.38
2023-03-29T09:41:32.291Z,9.40
2023-03-29T09:42:32.278Z,9.42
2023-03-29T09:43:32.271Z,9.43
2023-03-29T09:44:32.237Z,9.43
2023-03-29T09:45:33.253Z,9.46
2023-03-29T09:46:32.319Z,9.50
2023-03-29T09:47:32.252Z,9.50
2023-03-29T09:48:32.211Z,9.56
2023-03-29T09:49:32.206Z,9.52
2023-03-29T09:50:32.459Z,9.53
2023-03-29T09:51:32.204Z,9.52
2023-03-29T09:52:32.279Z,9.52
2023-03-29T09:53:32.184Z,9.50
2023-03-29T09:54:32.114Z,9.52
2023-03-29T09:55:32.159Z,9.50
2023-03-29T09:56:32.123Z,9.50
2023-03-29T09:57:32.128Z,9.52
2023-03-29T09:58:32.109Z,9.53
2023-03-29T09:59:32.079Z,9.60
2023-03-29T10:00:32.087Z,9.64
2023-03-29T10:01:32.140Z,9.68
2023-03-29T10:02:32.090Z,9.73
2023-03-29T10:03:32.067Z,9.75
2023-03-29T10:04:32.089Z,9.78
2023-03-29T10:05:32.037Z,9.83
2023-03-29T10:06:32.025Z,9.88
2023-03-29T10:07:31.998Z,9.89
2023-03-29T10:08:32.033Z,9.97
2023-03-29T10:09:32.068Z,10.00
2023-03-29T10:10:31.988Z,10.06
2023-03-29T10:11:31.989Z,10.14
2023-03-29T10:12:32.027Z,10.18
2023-03-29T10:13:31.943Z,10.26
2023-03-29T10:14:31.913Z,10.34
2023-03-29T10:15:31.986Z,10.42
2023-03-29T10:16:31.987Z,10.51
2023-03-29T10:17:34.677Z,10.59
2023-03-29T10:18:31.869Z,10.59
2023-03-29T10:19:31.932Z,10.63
2023-03-29T10:20:31.915Z,10.68
2023-03-29T10:21:31.935Z,10.68
2023-03-29T10:22:31.822Z,10.68
2023-03-29T10:23:31.874Z,10.65
2023-03-29T10:24:31.819Z,10.66
2023-03-29T10:25:31.845Z,10.71
2023-03-29T10:26:31.811Z,10.74
2023-03-29T10:27:31.826Z,10.81
2023-03-29T10:28:31.784Z,10.84
2023-03-29T10:29:31.859Z,10.88
2023-03-29T10:30:32.458Z,10.94
2023-03-29T10:31:31.783Z,10.98
2023-03-29T10:32:31.787Z,11.03
2023-03-29T10:33:31.767Z,11.07
2023-03-29T10:34:31.719Z,11.09
2023-03-29T10:35:31.818Z,11.10
2023-03-29T10:36:32.397Z,11.13
2023-03-29T10:37:31.712Z,11.14
2023-03-29T10:38:31.728Z,11.14
2023-03-29T10:39:31.733Z,11.17
2023-03-29T10:40:31.667Z,11.20
2023-03-29T10:41:31.744Z,11.17
2023-03-29T10:42:31.612Z,11.19
2023-03-29T10:43:31.699Z,11.19
2023-03-29T10:44:33.113Z,11.20
2023-03-29T10:45:31.588Z,11.24
2023-03-29T10:46:31.630Z,11.27
2023-03-29T10:47:31.625Z,11.27
2023-03-29T10:48:31.547Z,11.31
2023-03-29T10:49:31.575Z,11.31
2023-03-29T10:50:31.531Z,11.31
2023-03-29T10:51:31.576Z,11.32
2023-03-29T10:52:31.517Z,11.31
2023-03-29T10:53:31.556Z,11.31
2023-03-29T10:54:31.491Z,11.35
2023-03-29T10:55:31.503Z,11.36
2023-03-29T10:56:31.458Z,11.35
2023-03-29T10:57:31.621Z,11.36
2023-03-29T10:58:31.487Z,11.36
2023-03-29T10:59:31.480Z,11.41
2023-03-29T11:00:31.470Z,11.47
2023-03-29T11:01:31.668Z,11.46
2023-03-29T11:02:31.661Z,11.47
2023-03-29T11:03:31.837Z,11.43
2023-03-29T11:04:31.446Z,11.44
2023-03-29T11:05:32.357Z,11.47
2023-03-29T11:06:31.429Z,11.46
2023-03-29T11:07:31.673Z,11.43
2023-03-29T11:08:31.957Z,11.44
2023-03-29T11:09:31.476Z,11.43
2023-03-29T11:10:31.347Z,11.46
2023-03-29T11:11:31.474Z,11.47
2023-03-29T11:12:31.278Z,11.50
2023-03-29T11:13:31.511Z,11.52
2023-03-29T11:14:31.283Z,11.54
2023-03-29T11:15:31.363Z,11.57
2023-03-29T11:16:31.493Z,11.61
2023-03-29T11:17:31.295Z,11.62
2023-03-29T11:18:31.214Z,11.64
2023-03-29T11:19:31.255Z,11.62
2023-03-29T11:20:31.222Z,11.57
2023-03-29T11:21:31.206Z,11.54
2023-03-29T11:22:31.175Z,11.54
2023-03-29T11:23:31.220Z,11.53
2023-03-29T11:24:31.148Z,11.53
2023-03-29T11:25:31.243Z,11.49
2023-03-29T11:26:31.182Z,11.47
2023-03-29T11:27:31.166Z,11.43
2023-03-29T11:28:31.103Z,11.39
2023-03-29T11:29:31.146Z,11.35
2023-03-29T11:30:31.142Z,11.31
2023-03-29T11:31:31.184Z,11.28
2023-03-29T11:32:31.090Z,11.27
2023-03-29T11:33:31.094Z,11.25
2023-03-29T11:34:31.015Z,11.27
2023-03-29T11:35:31.088Z,11.25
2023-03-29T11:36:31.077Z,11.28
2023-03-29T11:37:31.022Z,11.28
2023-03-29T11:38:30.987Z,11.28
2023-03-29T11:39:31.008Z,11.31
2023-03-29T11:40:30.989Z,11.28
2023-03-29T11:41:31.022Z,11.28
2023-03-29T11:42:30.964Z,11.27
2023-03-29T11:43:30.971Z,11.28
2023-03-29T11:44:30.955Z,11.28
2023-03-29T11:45:30.954Z,11.34
2023-03-29T11:46:30.962Z,11.32
2023-03-29T11:47:30.993Z,11.34
2023-03-29T11:48:30.885Z,11.34
2023-03-29T11:49:30.927Z,11.36
2023-03-29T11:50:30.873Z,11.43
2023-03-29T11:51:30.937Z,11.43
2023-03-29T11:52:30.898Z,11.47
2023-03-29T11:53:31.830Z,11.52
2023-03-29T11:54:30.829Z,11.54
2023-03-29T11:55:30.828Z,11.59
2023-03-29T11:56:30.818Z,11.62
2023-03-29T11:57:30.890Z,11.65
2023-03-29T11:58:30.798Z,11.70
2023-03-29T11:59:30.782Z,11.71
2023-03-29T12:00:30.780Z,11.71
2023-03-29T12:01:30.768Z,11.74
2023-03-29T12:02:30.802Z,11.75
2023-03-29T12:03:30.864Z,11.77
2023-03-29T12:04:30.786Z,11.78
2023-03-29T12:05:30.703Z,11.82
2023-03-29T12:06:30.722Z,11.83
2023-03-29T12:07:30.697Z,11.86
2023-03-29T12:08:30.727Z,11.87
2023-03-29T12:09:30.697Z,11.89
2023-03-29T12:10:30.733Z,11.90
2023-03-29T12:11:30.653Z,11.90
2023-03-29T12:12:30.686Z,11.89
2023-03-29T12:13:30.651Z,11.87
2023-03-29T12:14:30.632Z,11.87
2023-03-29T12:15:30.614Z,11.86
2023-03-29T12:16:30.710Z,11.87
2023-03-29T12:17:30.642Z,11.87
2023-03-29T12:18:30.587Z,11.86
2023-03-29T12:19:30.602Z,11.83
2023-03-29T12:20:30.613Z,11.78
2023-03-29T12:21:31.242Z,11.78
2023-03-29T12:22:30.545Z,11.77
2023-03-29T12:23:30.521Z,11.77
2023-03-29T12:24:30.536Z,11.77
2023-03-29T12:25:30.529Z,11.78
2023-03-29T12:26:30.519Z,11.75
2023-03-29T12:27:30.487Z,11.77
2023-03-29T12:28:30.486Z,11.77
2023-03-29T12:29:30.451Z,11.77
2023-03-29T12:30:31.543Z,11.80
2023-03-29T12:31:30.427Z,11.80
2023-03-29T12:32:30.531Z,11.82
2023-03-29T12:33:30.413Z,11.82
2023-03-29T12:34:30.439Z,11.85
2023-03-29T12:35:30.420Z,11.86
2023-03-29T12:36:30.430Z,11.87
2023-03-29T12:37:30.366Z,11.93
2023-03-29T12:38:31.039Z,11.94
2023-03-29T12:39:30.403Z,11.97
2023-03-29T12:40:30.347Z,11.99
2023-03-29T12:41:30.325Z,12.02
2023-03-29T12:42:30.338Z,12.06
2023-03-29T12:43:30.316Z,12.12
2023-03-29T12:44:30.325Z,12.16
2023-03-29T12:45:30.287Z,12.19
2023-03-29T12:46:30.346Z,12.24
2023-03-29T12:47:30.319Z,12.29
2023-03-29T12:48:31.796Z,12.31
2023-03-29T12:49:30.238Z,12.39
2023-03-29T12:50:30.248Z,12.44
2023-03-29T12:51:30.224Z,12.51
2023-03-29T12:52:30.221Z,12.54
2023-03-29T12:53:30.189Z,12.60
2023-03-29T12:54:30.275Z,12.77
2023-03-29T12:55:30.181Z,12.97
2023-03-29T12:56:30.184Z,13.11
2023-03-29T12:57:30.159Z,13.22
2023-03-29T12:58:30.160Z,13.32
2023-03-29T12:59:30.161Z,13.43
2023-03-29T13:00:30.139Z,13.46
2023-03-29T13:01:30.186Z,13.55
2023-03-29T13:02:30.204Z,13.63
2023-03-29T13:03:30.066Z,13.73
2023-03-29T13:04:30.115Z,13.79
2023-03-29T13:05:30.097Z,13.81
2023-03-29T13:06:30.119Z,13.83
2023-03-29T13:07:30.050Z,13.87
2023-03-29T13:08:30.050Z,13.87
2023-03-29T13:09:30.120Z,13.87
2023-03-29T13:10:30.048Z,13.88
2023-03-29T13:11:29.996Z,13.88
2023-03-29T13:12:32.977Z,13.89